Portada
METAR-TAF:

METAR-TAF

Aeroports :

Hanamaki, Japó

latitud: 39-26N, longitud: 141-08E, altitud: 90 m

Observació

L'informe es va fer fa 40 minuts, a les 02:00 UTC
Vent 11 kt del Sud, variant entre Sud-Est i Sud/Sud-Oest
Temperatura 24°C
Humitat 69%
Pressió 1006 hPa
Visibilitat 10 km o més
Escasses núvols a una alçada de 2000 ft
Cel cobert

METAR: RJSI 180200Z 17011KT 140V200 9999 FEW020 OVC/// 24/18 Q1006

Hora: 11:40 (02:40 UTC)

Pronòstic

L'informe es va fer fa 3 hores i 34 minuts, a les 23:06 UTC
Pronòstic vàlid del 18 a les 00 UTC al 19 a les 06 UTC
Vent 12 kt del Sud
Visibilitat 10 km o més
Escasses núvols a una alçada de 2000 ft
Núvols disperses a una alçada de 5000 ft
Evolucionant progressivament
l' 18 a les 12 UTC al 18 a les 15 UTC
Vent 4 kt del Nord/Nord-Est
Evolucionant progressivament
l' 19 a les 00 UTC al 19 a les 03 UTC
Vent 8 kt del Oest

TAF: RJSI 172306Z 1800/1906 18012KT 9999 FEW020 SCT050 BECMG 1812/1815 02004KT BECMG 1900/1903 26008KT

Observacions i pronòstics meteorològics de més de 4000 aeroports (METAR i TAF).

Les estacions disponibles són els punts grocs i vermells al mapa.

Posi el ratolí al punt desitjat per veure el nom de l'estació.

Feu clic per veure les observacions i els pronòstics meteorològics.

Per canviar el mapa: feu clic els botons verds amb una creu de color negre per apropar; al botó verd amb un guió per allunyar la imatge; o en les fletxes verdes per a mapes adjacents.


METAR-TAF: